createdAt,value
2019-04-20T12:00:17.267Z,18.55
2019-04-20T12:01:21.689Z,18.60
2019-04-20T12:02:25.038Z,18.63
2019-04-20T12:03:23.755Z,18.61
2019-04-20T12:04:27.219Z,18.64
2019-04-20T12:05:26.232Z,18.64
2019-04-20T12:06:16.858Z,18.67
2019-04-20T12:07:17.133Z,18.67
2019-04-20T12:08:16.669Z,18.65
2019-04-20T12:09:17.068Z,18.66
2019-04-20T12:10:20.988Z,18.67
2019-04-20T12:11:26.403Z,18.69
2019-04-20T12:12:29.439Z,18.68
2019-04-20T12:13:16.480Z,18.69
2019-04-20T12:14:16.680Z,18.68
2019-04-20T12:15:16.898Z,18.67
2019-04-20T12:16:17.331Z,18.68
2019-04-20T12:17:17.564Z,18.68
2019-04-20T12:18:17.822Z,18.67
2019-04-20T12:19:16.316Z,18.68
2019-04-20T12:20:16.742Z,18.68
2019-04-20T12:21:16.855Z,18.67
2019-04-20T12:22:16.305Z,18.67
2019-04-20T12:23:16.366Z,18.68
2019-04-20T12:24:16.548Z,18.70
2019-04-20T12:25:16.301Z,18.73
2019-04-20T12:26:16.395Z,18.75
2019-04-20T12:27:16.723Z,18.79
2019-04-20T12:28:17.825Z,18.80
2019-04-20T12:29:16.316Z,18.80
2019-04-20T12:30:17.491Z,18.80
2019-04-20T12:31:20.553Z,18.79
2019-04-20T12:32:16.720Z,18.77
2019-04-20T12:33:17.685Z,18.77
2019-04-20T12:34:16.333Z,18.76
2019-04-20T12:35:16.405Z,18.76
2019-04-20T12:36:16.482Z,18.75
2019-04-20T12:37:16.307Z,18.74
2019-04-20T12:38:17.134Z,18.74
2019-04-20T12:39:22.545Z,18.72
2019-04-20T12:40:17.356Z,18.73
2019-04-20T12:41:17.949Z,18.73
2019-04-20T12:42:16.995Z,18.70
2019-04-20T12:43:17.263Z,18.70
2019-04-20T12:44:17.501Z,18.69
2019-04-20T12:45:17.584Z,18.70
2019-04-20T12:46:18.298Z,18.68
2019-04-20T12:47:17.483Z,18.68
2019-04-20T12:48:17.511Z,18.68
2019-04-20T12:49:17.875Z,18.67
2019-04-20T12:50:17.279Z,18.67
2019-04-20T12:51:17.525Z,18.66
2019-04-20T12:52:16.735Z,18.66
2019-04-20T12:53:17.068Z,18.65
2019-04-20T12:54:16.672Z,18.66
2019-04-20T12:55:16.641Z,18.65
2019-04-20T12:56:16.945Z,18.64
2019-04-20T12:57:16.589Z,18.64
2019-04-20T12:59:01.025Z,18.65
2019-04-20T13:00:01.632Z,18.63
2019-04-20T13:01:00.869Z,18.63
2019-04-20T13:02:01.649Z,18.63
2019-04-20T13:03:01.233Z,18.62
2019-04-20T13:04:02.938Z,18.62
2019-04-20T13:05:01.656Z,18.62
2019-04-20T13:06:01.842Z,18.62
2019-04-20T13:07:01.780Z,18.61
2019-04-20T13:08:02.971Z,18.61
2019-04-20T13:09:02.373Z,18.60
2019-04-20T13:10:03.588Z,18.61
2019-04-20T13:11:00.807Z,18.60
2019-04-20T13:12:05.343Z,18.61
2019-04-20T13:13:00.802Z,18.60
2019-04-20T13:14:02.115Z,18.60
2019-04-20T13:15:00.823Z,18.60
2019-04-20T13:16:00.826Z,18.59
2019-04-20T13:17:01.996Z,18.60
2019-04-20T13:18:01.214Z,18.59
2019-04-20T13:19:01.526Z,18.58
2019-04-20T13:20:00.802Z,18.60
2019-04-20T13:21:01.711Z,18.59
2019-04-20T13:22:01.156Z,18.58
2019-04-20T13:23:02.732Z,18.59
2019-04-20T13:24:09.424Z,18.61
2019-04-20T13:25:09.106Z,18.63
2019-04-20T13:26:10.173Z,18.65
2019-04-20T13:27:09.141Z,18.68
2019-04-20T13:28:09.145Z,18.70
2019-04-20T13:29:09.108Z,18.72
2019-04-20T13:30:09.263Z,18.75
2019-04-20T13:31:09.148Z,18.77
2019-04-20T13:32:09.725Z,18.78
2019-04-20T13:33:10.073Z,18.80
2019-04-20T13:34:09.625Z,18.82
2019-04-20T13:35:10.052Z,18.97
2019-04-20T13:36:10.280Z,19.09
2019-04-20T13:37:10.269Z,19.13
2019-04-20T13:38:10.000Z,20.72
2019-04-20T13:39:10.185Z,20.88
2019-04-20T13:40:09.177Z,19.92
2019-04-20T13:41:09.507Z,19.52
2019-04-20T13:42:16.074Z,19.39
2019-04-20T13:43:09.929Z,19.36
2019-04-20T13:44:09.147Z,19.36
2019-04-20T13:45:09.294Z,19.35
2019-04-20T13:46:09.232Z,19.39
2019-04-20T13:47:09.239Z,19.40
2019-04-20T13:48:09.159Z,19.39
2019-04-20T13:49:09.389Z,19.37
2019-04-20T13:50:09.728Z,19.41
2019-04-20T13:51:09.942Z,19.37
2019-04-20T13:52:09.245Z,19.36
2019-04-20T13:53:09.645Z,19.35
2019-04-20T13:54:15.123Z,19.35
2019-04-20T13:55:09.131Z,19.37
2019-04-20T13:56:09.956Z,19.36
2019-04-20T13:57:09.996Z,19.35
2019-04-20T13:58:09.903Z,19.35
2019-04-20T13:59:09.966Z,19.39
2019-04-20T14:00:10.088Z,19.42
2019-04-20T14:01:09.339Z,19.43
2019-04-20T14:02:09.186Z,19.40
2019-04-20T14:03:09.186Z,19.37
2019-04-20T14:04:10.397Z,19.36
2019-04-20T14:05:09.172Z,19.34
2019-04-20T14:06:09.170Z,19.31
2019-04-20T14:07:10.863Z,19.28
2019-04-20T14:08:09.562Z,19.26
2019-04-20T14:09:09.750Z,19.24
2019-04-20T14:10:09.294Z,19.21
2019-04-20T14:11:09.495Z,19.20
2019-04-20T14:12:20.083Z,19.18
2019-04-20T14:13:15.153Z,19.17
2019-04-20T14:14:09.164Z,19.15
2019-04-20T14:15:09.186Z,19.14
2019-04-20T14:16:09.235Z,19.12
2019-04-20T14:17:09.150Z,19.11
2019-04-20T14:18:09.174Z,19.10
2019-04-20T14:19:09.328Z,19.08
2019-04-20T14:20:15.058Z,19.07
2019-04-20T14:21:10.160Z,19.06
2019-04-20T14:22:10.302Z,19.04
2019-04-20T14:23:09.526Z,19.05
2019-04-20T14:24:09.149Z,19.03
2019-04-20T14:25:09.187Z,19.01
2019-04-20T14:26:09.267Z,19.00
2019-04-20T14:27:09.183Z,18.99
2019-04-20T14:28:09.224Z,18.98
2019-04-20T14:29:10.278Z,18.97
2019-04-20T14:30:30.998Z,18.96
2019-04-20T14:31:32.081Z,18.94
2019-04-20T14:32:30.722Z,18.94
2019-04-20T14:33:30.823Z,18.93
2019-04-20T14:34:31.108Z,18.91
2019-04-20T14:35:30.679Z,18.91
2019-04-20T14:36:30.854Z,18.89
2019-04-20T14:37:30.982Z,18.89
2019-04-20T14:38:30.749Z,18.88
2019-04-20T14:39:32.200Z,18.88
2019-04-20T14:40:30.739Z,18.87
2019-04-20T14:41:30.740Z,18.87
2019-04-20T14:42:38.570Z,18.87
2019-04-20T14:43:32.909Z,18.87
2019-04-20T14:44:31.947Z,18.86
2019-04-20T14:45:30.744Z,18.85
2019-04-20T14:46:31.611Z,18.84
2019-04-20T14:47:31.789Z,18.84
2019-04-20T14:48:31.103Z,18.83
2019-04-20T14:49:30.727Z,18.84
2019-04-20T14:50:31.736Z,18.83
2019-04-20T14:51:31.965Z,18.83
2019-04-20T14:52:31.409Z,18.82
2019-04-20T14:53:31.584Z,18.81
2019-04-20T14:54:31.816Z,18.81
2019-04-20T14:55:31.343Z,18.81
2019-04-20T14:56:31.498Z,18.80
2019-04-20T14:57:31.779Z,18.79
2019-04-20T14:58:31.404Z,18.79
2019-04-20T14:59:31.701Z,18.78
2019-04-20T15:03:30.795Z,18.77
2019-04-20T15:05:32.876Z,18.77
2019-04-20T15:07:31.078Z,18.77
2019-04-20T15:08:30.898Z,18.75
2019-04-20T15:09:31.669Z,18.75
2019-04-20T15:10:31.104Z,18.74
2019-04-20T15:12:17.022Z,18.75
2019-04-20T15:13:17.033Z,18.78
2019-04-20T15:14:16.759Z,18.83
2019-04-20T15:15:16.756Z,18.85
2019-04-20T15:16:16.986Z,18.89
2019-04-20T15:17:17.373Z,18.93
2019-04-20T15:18:17.708Z,18.94
2019-04-20T15:19:17.841Z,18.94
2019-04-20T15:20:17.269Z,18.95
2019-04-20T15:21:17.624Z,18.96
2019-04-20T15:22:17.665Z,18.96
2019-04-20T15:23:17.466Z,18.97
2019-04-20T15:24:17.793Z,18.96
2019-04-20T15:25:17.814Z,18.96
2019-04-20T15:26:16.750Z,18.97
2019-04-20T15:27:16.755Z,18.94
2019-04-20T15:28:16.766Z,18.94
2019-04-20T15:29:18.074Z,18.92
2019-04-20T15:30:18.198Z,18.92
2019-04-20T15:31:16.764Z,18.92
2019-04-20T15:32:16.748Z,18.91
2019-04-20T15:33:17.000Z,18.89
2019-04-20T15:34:17.106Z,18.89
2019-04-20T15:35:18.989Z,18.88
2019-04-20T15:36:18.001Z,18.86
2019-04-20T15:37:18.165Z,18.86
2019-04-20T15:38:17.517Z,18.85
2019-04-20T15:39:16.951Z,18.84
2019-04-20T15:40:17.301Z,18.83
2019-04-20T15:41:18.168Z,18.82
2019-04-20T15:42:17.076Z,18.82
2019-04-20T15:43:20.613Z,18.81
2019-04-20T15:44:17.532Z,18.81
2019-04-20T15:45:16.760Z,18.81
2019-04-20T15:46:17.257Z,18.80
2019-04-20T15:47:17.405Z,18.79
2019-04-20T15:48:32.081Z,18.79
2019-04-20T15:49:31.515Z,18.78
2019-04-20T15:50:31.723Z,18.78
2019-04-20T15:51:31.908Z,18.77
2019-04-20T15:52:36.704Z,18.78
2019-04-20T15:53:31.494Z,18.77
2019-04-20T15:54:31.646Z,18.76
2019-04-20T15:55:35.766Z,18.75
2019-04-20T15:56:30.475Z,18.75
2019-04-20T15:57:31.672Z,18.75
2019-04-20T15:58:30.459Z,18.73
2019-04-20T15:59:30.687Z,18.72
2019-04-20T16:00:30.509Z,18.73
2019-04-20T16:01:30.507Z,18.73
2019-04-20T16:02:31.510Z,18.73
2019-04-20T16:03:30.497Z,18.72
2019-04-20T16:04:34.304Z,18.73
2019-04-20T16:05:30.520Z,18.72
2019-04-20T16:06:31.555Z,18.72
2019-04-20T16:07:38.003Z,18.73
2019-04-20T16:08:30.529Z,18.72
2019-04-20T16:09:31.820Z,18.71
2019-04-20T16:10:30.820Z,18.72
2019-04-20T16:11:30.970Z,18.71
2019-04-20T16:12:31.101Z,18.71
2019-04-20T16:13:36.098Z,18.70
2019-04-20T16:14:31.251Z,18.70
2019-04-20T16:15:31.697Z,18.70
2019-04-20T16:16:31.807Z,18.70
2019-04-20T16:17:37.133Z,18.70
2019-04-20T16:18:30.812Z,18.69
2019-04-20T16:19:39.484Z,18.68
2019-04-20T16:20:43.542Z,18.67
2019-04-20T16:21:33.863Z,18.67
2019-04-20T16:22:30.886Z,18.68
2019-04-20T16:23:30.707Z,18.66
2019-04-20T16:24:32.863Z,18.66
2019-04-20T16:25:31.867Z,18.65
2019-04-20T16:26:31.618Z,18.66
2019-04-20T16:27:31.782Z,18.65
2019-04-20T16:28:31.946Z,18.64
2019-04-20T16:29:31.442Z,18.64
2019-04-20T16:30:31.776Z,18.64
2019-04-20T16:31:30.925Z,18.64
2019-04-20T16:32:30.579Z,18.63
2019-04-20T16:33:30.621Z,18.64
2019-04-20T16:34:31.717Z,18.64
2019-04-20T16:35:32.096Z,18.62
2019-04-20T16:37:26.467Z,18.65
2019-04-20T16:38:27.231Z,18.69
2019-04-20T16:39:25.737Z,18.74
2019-04-20T16:40:25.770Z,18.76
2019-04-20T16:41:26.423Z,18.79
2019-04-20T16:42:26.626Z,18.81
2019-04-20T16:43:32.044Z,18.83
2019-04-20T16:44:27.205Z,18.83
2019-04-20T16:45:25.766Z,18.85
2019-04-20T16:46:25.924Z,18.86
2019-04-20T16:47:26.080Z,18.86
2019-04-20T16:48:26.335Z,18.87
2019-04-20T16:49:25.791Z,18.87
2019-04-20T16:50:26.875Z,18.86
2019-04-20T16:51:26.899Z,18.87
2019-04-20T16:52:25.772Z,18.85
2019-04-20T16:53:26.843Z,18.86
2019-04-20T16:54:26.018Z,18.85
2019-04-20T16:55:26.938Z,18.85
2019-04-20T16:56:26.534Z,18.83
2019-04-20T16:57:25.796Z,18.82
2019-04-20T16:58:26.049Z,18.81
2019-04-20T16:59:25.795Z,18.80
2019-04-20T17:00:25.784Z,18.77
2019-04-20T17:01:25.822Z,18.80
2019-04-20T17:02:26.553Z,18.78
2019-04-20T17:03:38.962Z,18.77
2019-04-20T17:04:26.892Z,18.77
2019-04-20T17:05:25.891Z,18.76
2019-04-20T17:06:26.383Z,18.75
2019-04-20T17:07:26.801Z,18.75
2019-04-20T17:08:27.019Z,18.75
2019-04-20T17:09:26.170Z,18.75
2019-04-20T17:10:26.497Z,18.75
2019-04-20T17:11:25.851Z,18.73
2019-04-20T17:13:01.924Z,18.72
2019-04-20T17:14:03.142Z,18.72
2019-04-20T17:15:01.372Z,18.72
2019-04-20T17:16:01.791Z,18.71
2019-04-20T17:17:01.717Z,18.71
2019-04-20T17:18:01.521Z,18.71
2019-04-20T17:19:01.718Z,18.71
2019-04-20T17:20:01.887Z,18.70
2019-04-20T17:21:05.913Z,18.70
2019-04-20T17:22:01.206Z,18.70
2019-04-20T17:23:03.306Z,18.70
2019-04-20T17:24:01.620Z,18.69
2019-04-20T17:25:01.742Z,18.69
2019-04-20T17:26:02.071Z,18.68
2019-04-20T17:27:01.250Z,18.68
2019-04-20T17:28:02.537Z,18.68
2019-04-20T17:29:01.850Z,18.68
2019-04-20T17:30:01.148Z,18.68
2019-04-20T17:31:01.218Z,18.67
2019-04-20T17:32:01.327Z,18.67
2019-04-20T17:33:02.260Z,18.68
2019-04-20T17:34:11.096Z,18.66
2019-04-20T17:35:14.881Z,18.66
2019-04-20T17:57:33.651Z,18.73
2019-04-20T17:58:36.758Z,18.73
2019-04-20T17:59:34.577Z,18.72
2019-04-20T18:00:38.422Z,18.71
2019-04-20T18:01:48.913Z,18.72
2019-04-20T18:04:05.016Z,18.70
2019-04-20T18:06:47.916Z,18.69
2019-04-20T18:07:44.854Z,18.68
2019-04-20T18:08:49.414Z,18.70
2019-04-20T18:10:06.736Z,18.68
2019-04-20T18:10:57.293Z,18.69
2019-04-20T18:11:51.145Z,18.67
2019-04-20T18:12:51.978Z,18.68
2019-04-20T18:13:47.955Z,18.68
2019-04-20T18:15:00.439Z,18.67
2019-04-20T18:16:05.243Z,18.66
2019-04-20T18:17:03.484Z,18.67
2019-04-20T18:18:08.428Z,18.67
2019-04-20T18:18:55.217Z,18.66
2019-04-20T18:19:47.013Z,18.66
2019-04-20T18:20:46.074Z,18.65
2019-04-20T18:21:46.064Z,18.66
2019-04-20T18:22:50.491Z,18.64
2019-04-20T18:23:48.585Z,18.65
2019-04-20T18:25:08.985Z,18.65
2019-04-20T18:26:00.380Z,18.65
2019-04-20T18:27:04.297Z,18.64
2019-04-20T18:28:58.841Z,18.63
2019-04-20T18:30:06.635Z,18.64
2019-04-20T18:30:52.527Z,18.63
2019-04-20T18:31:47.280Z,18.63
2019-04-20T18:32:47.333Z,18.63
2019-04-20T18:33:46.504Z,18.62
2019-04-20T18:34:52.407Z,18.63
2019-04-20T18:35:47.564Z,18.63
2019-04-20T18:36:47.682Z,18.61
2019-04-20T18:37:53.631Z,18.61
2019-04-20T18:38:55.261Z,18.62
2019-04-20T18:39:53.414Z,18.61
2019-04-20T18:40:56.013Z,18.61
2019-04-20T18:41:51.486Z,18.61
2019-04-20T18:42:55.903Z,18.61
2019-04-20T18:43:50.248Z,18.60
2019-04-20T18:45:10.699Z,18.61
2019-04-20T18:46:03.739Z,18.61
2019-04-20T18:47:09.466Z,18.60
2019-04-20T18:48:05.976Z,18.60
2019-04-20T18:49:07.740Z,18.60
2019-04-20T18:49:54.920Z,18.60
2019-04-20T18:50:48.349Z,18.63
2019-04-20T18:51:46.411Z,18.64
2019-04-20T18:52:47.679Z,18.63
2019-04-20T18:53:48.193Z,18.62
2019-04-20T18:54:49.799Z,18.62
2019-04-20T18:55:51.541Z,18.61
2019-04-20T18:56:50.669Z,18.62
2019-04-20T18:57:46.959Z,18.61
2019-04-20T18:58:47.032Z,18.61
2019-04-20T18:59:52.115Z,18.61
2019-04-20T19:00:50.117Z,18.60
2019-04-20T19:01:46.806Z,18.59
2019-04-20T19:02:50.954Z,18.59
2019-04-20T19:03:47.706Z,18.59
2019-04-20T19:04:47.970Z,18.59
2019-04-20T19:05:47.602Z,18.58
2019-04-20T19:06:47.857Z,18.57
2019-04-20T19:07:57.208Z,18.57
2019-04-20T19:08:49.921Z,18.57
2019-04-20T19:09:46.118Z,18.57
2019-04-20T19:10:52.397Z,18.56
2019-04-20T19:11:55.935Z,18.57
2019-04-20T19:12:56.702Z,18.56
2019-04-20T19:13:49.191Z,18.56
2019-04-20T19:14:49.337Z,18.56
2019-04-20T19:16:01.994Z,18.56
2019-04-20T19:16:58.095Z,18.55
2019-04-20T19:17:59.140Z,18.54
2019-04-20T19:18:59.392Z,18.55
2019-04-20T19:19:50.973Z,18.55
2019-04-20T19:20:46.161Z,18.54
2019-04-20T19:21:46.316Z,18.55
2019-04-20T19:22:46.189Z,18.54
2019-04-20T19:23:54.938Z,18.54
2019-04-20T19:24:47.575Z,18.56
2019-04-20T19:25:47.717Z,18.55
2019-04-20T19:26:53.696Z,18.54
2019-04-20T19:27:50.923Z,18.54
2019-04-20T19:28:52.528Z,18.55
2019-04-20T19:29:56.382Z,18.53
2019-04-20T19:30:56.088Z,18.54
2019-04-20T19:32:07.369Z,18.53
2019-04-20T19:33:04.847Z,18.52
2019-04-20T19:34:55.280Z,18.52
2019-04-20T19:35:55.716Z,18.52
2019-04-20T19:36:59.160Z,18.51
2019-04-20T19:37:56.642Z,18.51
2019-04-20T19:39:00.870Z,18.52
2019-04-20T19:39:53.218Z,18.53
2019-04-20T19:40:56.469Z,18.52
2019-04-20T19:41:50.736Z,18.51
2019-04-20T19:43:01.283Z,18.52
2019-04-20T19:43:54.993Z,18.51
2019-04-20T19:46:06.608Z,18.52
2019-04-20T19:47:04.914Z,18.50
2019-04-20T19:48:04.664Z,18.51
2019-04-20T19:48:56.601Z,18.51
2019-04-20T19:50:18.291Z,18.50
2019-04-20T19:51:05.541Z,18.50
2019-04-20T19:52:20.212Z,18.51
2019-04-20T19:53:59.607Z,18.50
2019-04-20T19:55:02.706Z,18.50
2019-04-20T19:55:58.862Z,18.49
2019-04-20T19:57:01.445Z,18.49
2019-04-20T19:58:01.421Z,18.50
2019-04-20T19:59:06.565Z,18.50
2019-04-20T19:59:50.779Z,18.49
2019-04-20T20:00:48.385Z,18.50
2019-04-20T20:01:47.551Z,18.50
2019-04-20T20:02:47.773Z,18.47
2019-04-20T20:03:50.660Z,18.48
2019-04-20T20:04:50.881Z,18.47
2019-04-20T20:05:48.957Z,18.49
2019-04-20T20:06:51.890Z,18.50
2019-04-20T20:07:49.782Z,18.50
2019-04-20T20:08:54.115Z,18.49
2019-04-20T20:09:53.127Z,18.47
2019-04-20T20:10:46.176Z,18.49
2019-04-20T20:11:46.771Z,18.48
2019-04-20T20:12:51.736Z,18.49
2019-04-20T20:13:51.065Z,18.47
2019-04-20T20:14:48.325Z,18.48
2019-04-20T20:15:47.038Z,18.48
2019-04-20T20:17:04.234Z,18.46
2019-04-20T20:18:04.791Z,18.48
2019-04-20T20:18:57.524Z,18.46
2019-04-20T20:20:14.595Z,18.46
2019-04-20T20:20:59.564Z,18.46
2019-04-20T20:21:56.621Z,18.45
2019-04-20T20:22:50.546Z,18.46
2019-04-20T20:23:46.219Z,18.45
2019-04-20T20:24:47.131Z,18.44
2019-04-20T20:25:48.176Z,18.45
2019-04-20T20:26:54.555Z,18.46
2019-04-20T20:27:51.186Z,18.46
2019-04-20T20:28:52.504Z,18.45
2019-04-20T20:29:55.844Z,18.42
2019-04-20T20:30:56.850Z,18.42
2019-04-20T20:32:00.687Z,18.43
2019-04-20T20:33:01.068Z,18.44
2019-04-20T20:33:58.079Z,18.45
2019-04-20T20:34:56.086Z,18.42
2019-04-20T20:35:53.538Z,18.44
2019-04-20T20:36:54.639Z,18.43
2019-04-20T20:37:53.466Z,18.42
2019-04-20T20:38:51.790Z,18.42
2019-04-20T20:39:54.986Z,18.42
2019-04-20T20:41:01.543Z,18.43
2019-04-20T20:42:00.525Z,18.43
2019-04-20T20:42:56.563Z,18.43
2019-04-20T20:43:56.337Z,18.42
2019-04-20T20:44:52.849Z,18.42
2019-04-20T20:46:01.267Z,18.41
2019-04-20T20:46:55.121Z,18.41
2019-04-20T20:48:04.889Z,18.40
2019-04-20T20:50:08.617Z,18.42
2019-04-20T20:51:04.912Z,18.41
2019-04-20T20:52:08.267Z,18.40
2019-04-20T20:52:59.876Z,18.39
2019-04-20T20:53:55.703Z,18.40
2019-04-20T20:54:54.100Z,18.39
2019-04-20T20:55:48.697Z,18.39
2019-04-20T20:56:55.030Z,18.40
2019-04-20T20:57:56.351Z,18.40
2019-04-20T20:58:57.381Z,18.40
2019-04-20T20:59:55.352Z,18.39
2019-04-20T21:00:55.850Z,18.39
2019-04-20T21:01:56.810Z,18.38
2019-04-20T21:02:52.849Z,18.38
2019-04-20T21:03:49.100Z,18.38
2019-04-20T21:04:46.249Z,18.38
2019-04-20T21:05:47.367Z,18.38
2019-04-20T21:06:46.543Z,18.38
2019-04-20T21:07:48.367Z,18.38
2019-04-20T21:08:51.222Z,18.40
2019-04-20T21:09:46.291Z,18.38
2019-04-20T21:10:47.684Z,18.38
2019-04-20T21:11:46.396Z,18.38
2019-04-20T21:12:54.111Z,18.38
2019-04-20T21:13:48.371Z,18.39
2019-04-20T21:14:47.221Z,18.38
2019-04-20T21:16:52.234Z,18.38
2019-04-20T21:18:06.744Z,18.38
2019-04-20T21:18:56.843Z,18.38
2019-04-20T21:20:05.330Z,18.37
2019-04-20T21:21:00.050Z,18.37
2019-04-20T21:21:55.922Z,18.37
2019-04-20T21:22:58.717Z,18.38
2019-04-20T21:23:56.280Z,18.38
2019-04-20T21:24:48.449Z,18.36
2019-04-20T21:25:49.208Z,18.37
2019-04-20T21:26:47.579Z,18.36
2019-04-20T21:27:46.598Z,18.37
2019-04-20T21:28:46.286Z,18.37
2019-04-20T21:29:51.407Z,18.38
2019-04-20T21:30:48.527Z,18.38
2019-04-20T21:31:55.316Z,18.38
2019-04-20T21:32:49.119Z,18.38
2019-04-20T21:33:47.034Z,18.37
2019-04-20T21:34:54.194Z,18.37
2019-04-20T21:35:49.837Z,18.38
2019-04-20T21:36:47.272Z,18.36
2019-04-20T21:37:52.480Z,18.36
2019-04-20T21:38:46.975Z,18.36
2019-04-20T21:39:53.360Z,18.35
2019-04-20T21:40:49.259Z,18.34
2019-04-20T21:41:52.944Z,18.35
2019-04-20T21:42:52.525Z,18.35
2019-04-20T21:43:46.544Z,18.35
2019-04-20T21:44:50.042Z,18.34
2019-04-20T21:45:54.881Z,18.34
2019-04-20T21:46:49.686Z,18.35
2019-04-20T21:47:47.050Z,18.35
2019-04-20T21:48:59.644Z,18.35
2019-04-20T21:49:55.395Z,18.35
2019-04-20T21:51:01.610Z,18.36
2019-04-20T21:51:54.447Z,18.35
2019-04-20T21:52:50.617Z,18.35
2019-04-20T21:53:46.308Z,18.35
2019-04-20T21:55:47.897Z,18.35
2019-04-20T21:56:55.033Z,18.38
2019-04-20T21:57:51.564Z,18.39
2019-04-20T21:58:51.609Z,18.45
2019-04-20T21:59:50.445Z,18.47
2019-04-20T22:00:51.019Z,18.52
2019-04-20T22:01:55.069Z,18.52
2019-04-20T22:02:55.007Z,18.53
2019-04-20T22:03:46.420Z,18.52
2019-04-20T22:04:47.274Z,18.54
2019-04-20T22:05:46.564Z,18.58
2019-04-20T22:06:46.594Z,18.62
2019-04-20T22:07:46.504Z,18.65
2019-04-20T22:08:53.030Z,18.68
2019-04-20T22:09:49.408Z,18.69
2019-04-20T22:10:47.018Z,18.69
2019-04-20T22:11:47.466Z,18.69
2019-04-20T22:12:51.075Z,18.68
2019-04-20T22:13:49.124Z,18.69
2019-04-20T22:14:48.721Z,18.68
2019-04-20T22:15:54.351Z,18.69
2019-04-20T22:16:50.367Z,18.68
2019-04-20T22:17:46.493Z,18.67
2019-04-20T22:18:51.800Z,18.66
2019-04-20T22:20:02.893Z,18.65
2019-04-20T22:20:57.904Z,18.64
2019-04-20T22:22:00.058Z,18.63
2019-04-20T22:23:01.142Z,18.63
2019-04-20T22:23:59.963Z,18.61
2019-04-20T22:25:01.394Z,18.60
2019-04-20T22:25:58.067Z,18.60
2019-04-20T22:26:52.578Z,18.59
2019-04-20T22:27:46.449Z,18.58
2019-04-20T22:28:47.945Z,18.58
2019-04-20T22:29:46.447Z,18.58
2019-04-20T22:30:48.393Z,18.56
2019-04-20T22:31:52.344Z,18.56
2019-04-20T22:32:49.899Z,18.55
2019-04-20T22:33:47.304Z,18.55
2019-04-20T22:34:55.994Z,18.54
2019-04-20T22:35:52.984Z,18.54
2019-04-20T22:36:48.543Z,18.54
2019-04-20T22:37:47.677Z,18.54
2019-04-20T22:38:51.161Z,18.55
2019-04-20T22:40:01.231Z,18.54
2019-04-20T22:41:09.156Z,18.54
2019-04-20T22:42:08.595Z,18.52
2019-04-20T22:43:02.019Z,18.54
2019-04-20T22:44:01.830Z,18.52
2019-04-20T22:45:05.278Z,18.52
2019-04-20T22:46:01.238Z,18.52
2019-04-20T22:47:05.474Z,18.53
2019-04-20T22:48:06.473Z,18.52
2019-04-20T22:49:22.233Z,18.51
2019-04-20T22:50:21.566Z,18.52
2019-04-20T22:51:24.329Z,18.51
2019-04-20T22:52:18.500Z,18.51
2019-04-20T22:53:17.989Z,18.51
2019-04-20T22:54:17.202Z,18.51
2019-04-20T22:55:21.013Z,18.50
2019-04-20T22:56:18.649Z,18.50
2019-04-20T22:57:11.827Z,18.50
2019-04-20T22:58:17.805Z,18.51
2019-04-20T22:59:07.387Z,18.50
2019-04-20T23:00:08.341Z,18.49
2019-04-20T23:01:05.809Z,18.49
2019-04-20T23:02:03.856Z,18.49
2019-04-20T23:03:00.952Z,18.48
2019-04-20T23:04:01.126Z,18.48
2019-04-20T23:05:00.916Z,18.48
2019-04-20T23:06:00.957Z,18.49
2019-04-20T23:07:01.071Z,18.47
2019-04-20T23:08:02.416Z,18.48
2019-04-20T23:09:06.885Z,18.48
2019-04-20T23:10:03.087Z,18.47
2019-04-20T23:11:03.112Z,18.47
2019-04-20T23:12:08.076Z,18.48
2019-04-20T23:13:01.378Z,18.47
2019-04-20T23:14:02.349Z,18.46
2019-04-20T23:15:00.922Z,18.47
2019-04-20T23:16:02.647Z,18.47
2019-04-20T23:17:02.127Z,18.46
2019-04-20T23:18:02.158Z,18.46
2019-04-20T23:19:02.339Z,18.47
2019-04-20T23:20:02.901Z,18.47
2019-04-20T23:21:06.307Z,18.46
2019-04-20T23:22:04.866Z,18.46
2019-04-20T23:23:01.007Z,18.47
2019-04-20T23:24:07.304Z,18.45
2019-04-20T23:25:01.017Z,18.45
2019-04-20T23:26:01.176Z,18.46
2019-04-20T23:27:04.420Z,18.45
2019-04-20T23:28:06.439Z,18.46
2019-04-20T23:29:02.631Z,18.46
2019-04-20T23:30:05.588Z,18.45
2019-04-20T23:31:07.393Z,18.46
2019-04-20T23:32:04.913Z,18.45
2019-04-20T23:33:02.172Z,18.45
2019-04-20T23:34:09.175Z,18.46
2019-04-20T23:35:05.849Z,18.44
2019-04-20T23:36:02.865Z,18.45
2019-04-20T23:37:01.068Z,18.45
2019-04-20T23:38:07.973Z,18.45
2019-04-20T23:39:02.942Z,18.45
2019-04-20T23:40:02.670Z,18.44
2019-04-20T23:41:01.793Z,18.44
2019-04-20T23:42:05.609Z,18.44
2019-04-20T23:43:01.997Z,18.45
2019-04-20T23:44:08.260Z,18.45
2019-04-20T23:45:02.164Z,18.45
2019-04-20T23:46:01.194Z,18.44
2019-04-20T23:47:06.880Z,18.44
2019-04-20T23:48:04.424Z,18.45
2019-04-20T23:49:01.786Z,18.45
2019-04-20T23:50:17.896Z,18.43
2019-04-20T23:51:26.395Z,18.44
2019-04-20T23:52:27.001Z,18.43
2019-04-20T23:53:19.570Z,18.44
2019-04-20T23:54:10.154Z,18.43
2019-04-20T23:55:06.008Z,18.43
2019-04-20T23:56:01.760Z,18.44
2019-04-20T23:57:01.819Z,18.44
2019-04-20T23:58:04.969Z,18.44
2019-04-20T23:59:02.281Z,18.44
